Impacts TAF Board INFO
FOR SITUATIONAL AWARENESS. NOT TO BE USED FOR FLIGHT PLANNING PURPOSES.
IDs:

KMEM - Memphis Intl, TN, US

Issued at 1731 UTC 11 Dec 2017
Updated at 2056 UTC 11 Dec 2017
Potential Impact None Slight Moderate High
Time<<12/21Z 12/22Z 12/23Z 13/00Z 13/01Z 13/02Z 13/03Z 13/04Z 13/05Z 13/06Z 13/07Z 13/08Z 13/09Z
Type PRVL PRVL PRVL
VIS >6 >6 >6
CIG -- -- --
Cover SKC SKC SKC
FltCat VFR VFR VFR
WX -- -- --
WDir 310 310 310
WSpd 9 9 9
WGst -- -- --

Raw TAF
KMEM 111731Z 1118/1224 22011G18KT P6SM SKC
  FM120000 26008KT P6SM SCT150
  FM120300 31010G16KT P6SM SCT035 BKN150
  TEMPO 1207/1211 BKN040
  FM121400 33013G20KT P6SM FEW250
  FM122000 31009KT P6SM SKC


METAR Board
Radar Display
Forecast Discussion

FOR SITUATIONAL AWARENESS. NOT TO BE USED FOR FLIGHT PLANNING PURPOSES.